createdAt,value
2018-12-24T00:00:45.558Z,6.68
2018-12-24T00:01:45.572Z,6.72
2018-12-24T00:02:45.333Z,6.68
2018-12-24T00:03:45.245Z,6.65
2018-12-24T00:04:45.214Z,6.72
2018-12-24T00:05:45.178Z,6.72
2018-12-24T00:06:45.154Z,6.72
2018-12-24T00:07:45.163Z,6.68
2018-12-24T00:08:45.079Z,6.68
2018-12-24T00:09:45.054Z,6.70
2018-12-24T00:10:45.022Z,6.70
2018-12-24T00:11:45.002Z,6.70
2018-12-24T00:12:44.999Z,6.55
2018-12-24T00:13:44.920Z,6.64
2018-12-24T00:14:44.884Z,6.57
2018-12-24T00:15:44.859Z,6.57
2018-12-24T00:16:44.826Z,6.55
2018-12-24T00:17:44.835Z,6.67
2018-12-24T00:18:45.508Z,6.60
2018-12-24T00:19:45.514Z,6.57
2018-12-24T00:20:44.735Z,6.57
2018-12-24T00:21:44.661Z,6.55
2018-12-24T00:22:44.704Z,6.60
2018-12-24T00:23:44.591Z,6.52
2018-12-24T00:24:44.570Z,6.57
2018-12-24T00:25:45.539Z,6.54
2018-12-24T00:26:44.486Z,6.49
2018-12-24T00:27:44.502Z,6.51
2018-12-24T00:28:44.467Z,6.51
2018-12-24T00:29:44.472Z,6.60
2018-12-24T00:30:44.511Z,6.55
2018-12-24T00:31:45.010Z,6.55
2018-12-24T00:32:45.014Z,6.52
2018-12-24T00:33:44.565Z,6.51
2018-12-24T00:34:44.237Z,6.58
2018-12-24T00:35:44.564Z,6.52
2018-12-24T00:36:44.158Z,6.51
2018-12-24T00:37:45.016Z,6.47
2018-12-24T00:38:45.015Z,6.47
2018-12-24T00:39:44.584Z,6.49
2018-12-24T00:40:45.012Z,6.47
2018-12-24T00:41:44.541Z,6.55
2018-12-24T00:42:43.962Z,6.52
2018-12-24T00:43:43.931Z,6.51
2018-12-24T00:44:43.953Z,6.52
2018-12-24T00:45:44.523Z,6.54
2018-12-24T00:46:44.077Z,6.55
2018-12-24T00:47:43.797Z,6.55
2018-12-24T00:48:43.770Z,6.60
2018-12-24T00:49:43.804Z,6.57
2018-12-24T00:50:44.511Z,6.60
2018-12-24T00:51:44.511Z,6.52
2018-12-24T00:52:44.533Z,6.47
2018-12-24T00:53:44.510Z,6.57
2018-12-24T00:54:43.629Z,6.47
2018-12-24T00:55:44.796Z,6.51
2018-12-24T00:56:44.020Z,6.46
2018-12-24T00:57:43.493Z,6.51
2018-12-24T00:58:44.040Z,6.51
2018-12-24T00:59:43.594Z,6.51
2018-12-24T01:00:44.318Z,6.52
2018-12-24T01:01:43.346Z,6.43
2018-12-24T01:02:43.304Z,6.46
2018-12-24T01:03:44.018Z,6.40
2018-12-24T01:04:43.581Z,6.43
2018-12-24T01:05:43.201Z,6.51
2018-12-24T01:06:44.013Z,6.44
2018-12-24T01:07:44.016Z,6.49
2018-12-24T01:08:44.012Z,6.51
2018-12-24T01:09:43.570Z,6.39
2018-12-24T01:10:44.194Z,6.43
2018-12-24T01:11:43.519Z,6.52
2018-12-24T01:12:43.516Z,6.49
2018-12-24T01:13:42.938Z,6.52
2018-12-24T01:14:43.517Z,6.44
2018-12-24T01:15:43.514Z,6.49
2018-12-24T01:16:43.081Z,6.52
2018-12-24T01:17:43.518Z,6.43
2018-12-24T01:18:42.773Z,6.43
2018-12-24T01:19:42.797Z,6.39
2018-12-24T01:20:43.526Z,6.43
2018-12-24T01:21:42.713Z,6.37
2018-12-24T01:22:43.061Z,6.39
2018-12-24T01:23:43.548Z,6.37
2018-12-24T01:24:42.580Z,6.34
2018-12-24T01:25:43.516Z,6.36
2018-12-24T01:26:42.518Z,6.37
2018-12-24T01:27:42.561Z,6.36
2018-12-24T01:28:42.526Z,6.33
2018-12-24T01:29:42.403Z,6.28
2018-12-24T01:30:42.369Z,6.09
2018-12-24T01:31:42.332Z,6.10
2018-12-24T01:32:42.303Z,6.14
2018-12-24T01:33:42.331Z,6.02
2018-12-24T01:34:42.238Z,6.07
2018-12-24T01:35:42.215Z,5.91
2018-12-24T01:36:42.167Z,5.82
2018-12-24T01:37:42.134Z,5.78
2018-12-24T01:38:42.165Z,5.72
2018-12-24T01:39:42.068Z,5.62
2018-12-24T01:40:43.056Z,5.52
2018-12-24T01:41:42.513Z,5.46
2018-12-24T01:42:41.965Z,5.39
2018-12-24T01:43:42.067Z,5.39
2018-12-24T01:44:41.978Z,5.36
2018-12-24T01:45:42.522Z,5.37
2018-12-24T01:46:41.828Z,5.39
2018-12-24T01:47:41.801Z,5.36
2018-12-24T01:48:42.515Z,5.33
2018-12-24T01:49:42.094Z,5.20
2018-12-24T01:50:42.073Z,5.21
2018-12-24T01:51:42.521Z,5.18
2018-12-24T01:52:41.631Z,5.20
2018-12-24T01:53:41.610Z,5.13
2018-12-24T01:54:41.566Z,5.13
2018-12-24T01:55:41.571Z,5.12
2018-12-24T01:56:41.496Z,5.13
2018-12-24T01:57:41.462Z,5.18
2018-12-24T01:58:41.440Z,5.12
2018-12-24T01:59:41.391Z,5.15
2018-12-24T02:00:41.411Z,5.13
2018-12-24T02:01:42.054Z,5.16
2018-12-24T02:02:42.023Z,5.12
2018-12-24T02:03:42.026Z,5.16
2018-12-24T02:04:42.019Z,5.16
2018-12-24T02:05:41.250Z,5.08
2018-12-24T02:06:41.595Z,5.09
2018-12-24T02:07:42.017Z,5.03
2018-12-24T02:08:41.095Z,5.13
2018-12-24T02:09:41.054Z,5.12
2018-12-24T02:10:41.018Z,5.18
2018-12-24T02:11:41.042Z,5.00
2018-12-24T02:12:42.319Z,5.16
2018-12-24T02:13:40.926Z,5.10
2018-12-24T02:14:40.888Z,5.06
2018-12-24T02:15:41.587Z,5.06
2018-12-24T02:16:40.860Z,5.03
2018-12-24T02:17:41.523Z,4.98
2018-12-24T02:18:41.525Z,4.91
2018-12-24T02:19:40.718Z,4.91
2018-12-24T02:20:41.524Z,4.91
2018-12-24T02:21:41.083Z,4.83
2018-12-24T02:22:45.610Z,4.76
2018-12-24T02:23:42.944Z,4.74
2018-12-24T02:24:40.548Z,4.75
2018-12-24T02:25:44.931Z,4.76
2018-12-24T02:26:41.447Z,4.69
2018-12-24T02:27:41.025Z,4.69
2018-12-24T02:28:40.412Z,4.61
2018-12-24T02:29:41.022Z,4.61
2018-12-24T02:30:40.388Z,4.66
2018-12-24T02:31:41.111Z,4.68
2018-12-24T02:32:41.589Z,4.61
2018-12-24T02:33:40.242Z,4.61
2018-12-24T02:34:40.230Z,4.61
2018-12-24T02:35:40.171Z,4.56
2018-12-24T02:36:40.187Z,4.64
2018-12-24T02:37:40.145Z,4.60
2018-12-24T02:38:41.042Z,4.56
2018-12-24T02:39:41.025Z,4.54
2018-12-24T02:40:40.524Z,4.57
2018-12-24T02:41:39.976Z,4.60
2018-12-24T02:42:39.990Z,4.53
2018-12-24T02:43:39.907Z,4.60
2018-12-24T02:44:40.522Z,4.65
2018-12-24T02:45:40.522Z,4.58
2018-12-24T02:46:40.548Z,4.57
2018-12-24T02:47:47.339Z,4.61
2018-12-24T02:48:39.722Z,4.57
2018-12-24T02:49:40.548Z,4.60
2018-12-24T02:50:40.544Z,4.60
2018-12-24T02:51:40.566Z,4.56
2018-12-24T02:52:40.571Z,4.56
2018-12-24T02:53:39.641Z,4.60
2018-12-24T02:54:39.516Z,4.51
2018-12-24T02:55:39.606Z,4.56
2018-12-24T02:56:39.474Z,4.54
2018-12-24T02:57:39.601Z,4.44
2018-12-24T02:58:39.425Z,4.47
2018-12-24T02:59:39.349Z,4.47
2018-12-24T03:00:40.060Z,4.54
2018-12-24T03:01:39.272Z,4.48
2018-12-24T03:02:40.056Z,4.50
2018-12-24T03:03:39.595Z,4.47
2018-12-24T03:04:39.631Z,4.48
2018-12-24T03:05:40.051Z,4.56
2018-12-24T03:06:40.058Z,4.46
2018-12-24T03:07:40.058Z,4.47
2018-12-24T03:08:39.087Z,4.39
2018-12-24T03:09:39.004Z,4.53
2018-12-24T03:10:39.016Z,4.47
2018-12-24T03:11:39.548Z,4.44
2018-12-24T03:12:38.888Z,4.51
2018-12-24T03:13:38.892Z,4.39
2018-12-24T03:14:38.833Z,4.47
2018-12-24T03:15:38.789Z,4.44
2018-12-24T03:16:38.751Z,4.39
2018-12-24T03:17:38.952Z,4.46
2018-12-24T03:18:38.709Z,4.46
2018-12-24T03:19:38.655Z,4.40
2018-12-24T03:20:38.622Z,4.39
2018-12-24T03:21:38.584Z,4.36
2018-12-24T03:22:38.582Z,4.44
2018-12-24T03:23:39.049Z,4.46
2018-12-24T03:24:38.473Z,4.42
2018-12-24T03:25:38.495Z,4.42
2018-12-24T03:26:39.065Z,4.46
2018-12-24T03:27:38.424Z,4.44
2018-12-24T03:28:38.339Z,4.40
2018-12-24T03:29:39.072Z,4.40
2018-12-24T03:30:38.282Z,4.36
2018-12-24T03:31:38.235Z,4.33
2018-12-24T03:32:38.246Z,4.30
2018-12-24T03:33:38.289Z,4.28
2018-12-24T03:34:38.136Z,4.30
2018-12-24T03:35:38.102Z,4.33
2018-12-24T03:36:38.066Z,4.33
2018-12-24T03:37:38.075Z,4.30
2018-12-24T03:38:37.993Z,4.20
2018-12-24T03:39:38.005Z,4.22
2018-12-24T03:40:37.927Z,4.30
2018-12-24T03:41:38.554Z,4.22
2018-12-24T03:42:38.556Z,4.22
2018-12-24T03:43:37.870Z,4.18
2018-12-24T03:44:38.109Z,4.15
2018-12-24T03:45:38.552Z,4.12
2018-12-24T03:46:38.555Z,4.12
2018-12-24T03:47:38.561Z,4.15
2018-12-24T03:48:37.647Z,4.12
2018-12-24T03:49:37.705Z,4.10
2018-12-24T03:50:37.626Z,4.14
2018-12-24T03:51:37.547Z,4.20
2018-12-24T03:52:37.507Z,4.14
2018-12-24T03:53:38.047Z,4.11
2018-12-24T03:54:37.437Z,3.99
2018-12-24T03:55:37.458Z,4.08
2018-12-24T03:56:37.377Z,4.04
2018-12-24T03:57:37.343Z,4.03
2018-12-24T03:58:38.055Z,3.93
2018-12-24T03:59:37.269Z,3.99
2018-12-24T04:00:37.614Z,3.99
2018-12-24T04:01:37.206Z,3.96
2018-12-24T04:02:37.157Z,4.04
2018-12-24T04:03:37.127Z,4.04
2018-12-24T04:04:38.055Z,4.07
2018-12-24T04:05:37.111Z,4.04
2018-12-24T04:06:37.556Z,3.94
2018-12-24T04:07:37.559Z,4.00
2018-12-24T04:08:37.557Z,4.07
2018-12-24T04:09:36.919Z,4.03
2018-12-24T04:10:36.948Z,4.00
2018-12-24T04:11:37.549Z,4.02
2018-12-24T04:12:37.553Z,4.14
2018-12-24T04:13:37.555Z,4.10
2018-12-24T04:14:37.554Z,4.08
2018-12-24T04:15:37.137Z,4.08
2018-12-24T04:16:36.687Z,4.07
2018-12-24T04:17:37.558Z,4.15
2018-12-24T04:18:36.612Z,4.08
2018-12-24T04:19:37.593Z,4.02
2018-12-24T04:20:36.610Z,4.15
2018-12-24T04:21:36.563Z,4.10
2018-12-24T04:22:37.054Z,4.17
2018-12-24T04:23:36.456Z,4.14
2018-12-24T04:24:36.393Z,4.04
2018-12-24T04:25:37.056Z,4.12
2018-12-24T04:26:36.379Z,4.12
2018-12-24T04:27:41.670Z,4.04
2018-12-24T04:28:37.057Z,4.08
2018-12-24T04:29:37.098Z,4.10
2018-12-24T04:30:37.059Z,4.10
2018-12-24T04:31:36.611Z,4.15
2018-12-24T04:32:37.057Z,4.15
2018-12-24T04:33:37.061Z,4.17
2018-12-24T04:34:36.563Z,4.10
2018-12-24T04:35:36.564Z,4.10
2018-12-24T04:36:36.124Z,4.12
2018-12-24T04:37:36.110Z,4.12
2018-12-24T04:38:35.918Z,4.14
2018-12-24T04:39:36.570Z,4.18
2018-12-24T04:40:36.598Z,4.12
2018-12-24T04:41:36.146Z,4.12
2018-12-24T04:42:35.770Z,4.12
2018-12-24T04:43:35.817Z,4.15
2018-12-24T04:44:35.717Z,4.15
2018-12-24T04:45:36.561Z,4.12
2018-12-24T04:46:36.553Z,4.08
2018-12-24T04:47:35.663Z,4.02
2018-12-24T04:48:35.608Z,4.14
2018-12-24T04:49:35.533Z,4.08
2018-12-24T04:50:36.060Z,4.08
2018-12-24T04:51:35.453Z,4.08
2018-12-24T04:52:35.622Z,4.17
2018-12-24T04:53:35.651Z,4.15
2018-12-24T04:54:36.057Z,4.14
2018-12-24T04:55:35.318Z,4.02
2018-12-24T04:56:35.292Z,4.04
2018-12-24T04:57:35.254Z,4.11
2018-12-24T04:58:35.258Z,4.14
2018-12-24T04:59:35.179Z,4.07
2018-12-24T05:00:35.142Z,4.14
2018-12-24T05:01:35.108Z,4.07
2018-12-24T05:02:35.071Z,4.04
2018-12-24T05:03:35.089Z,4.08
2018-12-24T05:04:35.069Z,4.00
2018-12-24T05:05:35.557Z,4.03
2018-12-24T05:06:34.978Z,4.04
2018-12-24T05:07:34.901Z,3.92
2018-12-24T05:08:34.905Z,3.96
2018-12-24T05:09:34.826Z,4.03
2018-12-24T05:10:34.835Z,3.94
2018-12-24T05:11:34.787Z,3.85
2018-12-24T05:12:34.732Z,3.84
2018-12-24T05:13:40.828Z,3.86
2018-12-24T05:14:34.651Z,3.96
2018-12-24T05:15:34.661Z,3.86
2018-12-24T05:16:34.584Z,3.86
2018-12-24T05:17:34.577Z,3.85
2018-12-24T05:18:34.516Z,3.86
2018-12-24T05:19:34.531Z,3.84
2018-12-24T05:20:34.455Z,3.89
2018-12-24T05:21:34.419Z,3.81
2018-12-24T05:22:35.062Z,3.82
2018-12-24T05:23:34.394Z,3.82
2018-12-24T05:24:34.303Z,3.85
2018-12-24T05:25:34.319Z,3.84
2018-12-24T05:26:35.075Z,3.82
2018-12-24T05:27:35.064Z,3.86
2018-12-24T05:28:34.171Z,3.84
2018-12-24T05:29:34.174Z,3.76
2018-12-24T05:30:34.151Z,3.78
2018-12-24T05:31:34.059Z,3.78
2018-12-24T05:32:34.035Z,3.72
2018-12-24T05:33:33.998Z,3.71
2018-12-24T05:34:33.970Z,3.57
2018-12-24T05:35:33.968Z,3.56
2018-12-24T05:36:33.902Z,3.51
2018-12-24T05:37:33.846Z,3.48
2018-12-24T05:38:33.824Z,3.49
2018-12-24T05:39:33.784Z,3.45
2018-12-24T05:40:34.114Z,3.37
2018-12-24T05:41:33.712Z,3.40
2018-12-24T05:42:33.680Z,3.45
2018-12-24T05:43:33.635Z,3.40
2018-12-24T05:44:33.601Z,3.42
2018-12-24T05:45:33.633Z,3.34
2018-12-24T05:46:33.571Z,3.39
2018-12-24T05:47:33.506Z,3.26
2018-12-24T05:48:34.062Z,3.32
2018-12-24T05:49:34.069Z,3.35
2018-12-24T05:50:33.395Z,3.23
2018-12-24T05:51:33.404Z,3.29
2018-12-24T05:52:33.334Z,3.30
2018-12-24T05:53:34.060Z,3.24
2018-12-24T05:54:38.632Z,3.21
2018-12-24T05:55:34.067Z,3.23
2018-12-24T05:56:33.645Z,3.24
2018-12-24T05:57:33.144Z,3.21
2018-12-24T05:58:34.069Z,3.21
2018-12-24T05:59:34.067Z,3.17
2018-12-24T06:00:33.569Z,3.17
2018-12-24T06:01:33.070Z,3.16
2018-12-24T06:02:33.568Z,3.14
2018-12-24T06:03:33.565Z,3.19
2018-12-24T06:04:33.568Z,3.21
2018-12-24T06:05:33.572Z,3.19
2018-12-24T06:06:33.117Z,3.16
2018-12-24T06:07:33.573Z,3.21
2018-12-24T06:08:33.566Z,3.20
2018-12-24T06:09:33.562Z,3.17
2018-12-24T06:10:32.726Z,3.14
2018-12-24T06:11:33.572Z,3.17
2018-12-24T06:12:33.120Z,3.19
2018-12-24T06:13:32.600Z,3.16
2018-12-24T06:14:32.546Z,3.20
2018-12-24T06:15:32.551Z,3.19
2018-12-24T06:16:32.535Z,3.08
2018-12-24T06:17:33.068Z,3.14
2018-12-24T06:18:32.398Z,3.05
2018-12-24T06:19:32.365Z,3.06
2018-12-24T06:20:37.685Z,3.13
2018-12-24T06:21:32.632Z,3.08
2018-12-24T06:22:32.253Z,3.06
2018-12-24T06:23:33.071Z,3.05
2018-12-24T06:24:32.191Z,3.08
2018-12-24T06:25:32.155Z,3.11
2018-12-24T06:26:32.172Z,3.13
2018-12-24T06:27:32.077Z,3.09
2018-12-24T06:28:32.046Z,3.17
2018-12-24T06:29:32.009Z,3.11
2018-12-24T06:30:32.028Z,3.13
2018-12-24T06:31:31.978Z,3.05
2018-12-24T06:32:32.569Z,3.13
2018-12-24T06:33:32.569Z,3.08
2018-12-24T06:34:32.139Z,3.13
2018-12-24T06:35:32.570Z,3.11
2018-12-24T06:36:31.767Z,3.06
2018-12-24T06:37:31.719Z,3.13
2018-12-24T06:38:31.693Z,3.08
2018-12-24T06:39:31.714Z,3.03
2018-12-24T06:40:32.568Z,3.08
2018-12-24T06:41:32.568Z,3.13
2018-12-24T06:42:31.545Z,3.08
2018-12-24T06:43:31.511Z,3.11
2018-12-24T06:44:31.521Z,3.11
2018-12-24T06:45:32.066Z,3.16
2018-12-24T06:46:31.618Z,3.20
2018-12-24T06:47:32.072Z,3.11
2018-12-24T06:48:31.333Z,3.11
2018-12-24T06:49:31.353Z,3.13
2018-12-24T06:50:31.263Z,3.14
2018-12-24T06:51:31.272Z,3.11
2018-12-24T06:52:32.107Z,3.13
2018-12-24T06:53:31.153Z,3.13
2018-12-24T06:54:32.072Z,3.23
2018-12-24T06:55:31.084Z,3.14
2018-12-24T06:56:31.099Z,3.21
2018-12-24T06:57:31.017Z,3.19
2018-12-24T06:58:30.974Z,3.09
2018-12-24T06:59:30.944Z,2.98
2018-12-24T07:00:31.591Z,2.96
2018-12-24T07:01:31.132Z,2.90
2018-12-24T07:02:30.841Z,2.81
2018-12-24T07:03:31.568Z,2.78
2018-12-24T07:04:30.761Z,2.78
2018-12-24T07:05:30.735Z,2.70
2018-12-24T07:06:30.749Z,2.72
2018-12-24T07:07:30.702Z,2.63
2018-12-24T07:08:31.577Z,2.69
2018-12-24T07:09:31.611Z,2.65
2018-12-24T07:10:31.089Z,2.63
2018-12-24T07:11:30.521Z,2.66
2018-12-24T07:12:31.163Z,2.59
2018-12-24T07:13:30.450Z,2.55
2018-12-24T07:14:30.404Z,2.66
2018-12-24T07:15:30.375Z,2.63
2018-12-24T07:16:30.335Z,2.58
2018-12-24T07:17:30.354Z,2.62
2018-12-24T07:18:30.263Z,2.58
2018-12-24T07:19:30.226Z,2.59
2018-12-24T07:20:30.215Z,2.59
2018-12-24T07:21:31.078Z,2.55
2018-12-24T07:22:30.625Z,2.62
2018-12-24T07:23:30.126Z,2.52
2018-12-24T07:24:30.050Z,2.52
2018-12-24T07:25:30.013Z,2.48
2018-12-24T07:26:29.974Z,2.48
2018-12-24T07:27:29.942Z,2.48
2018-12-24T07:28:30.152Z,2.48
2018-12-24T07:29:29.864Z,2.48
2018-12-24T07:30:29.836Z,2.45
2018-12-24T07:31:29.797Z,2.48
2018-12-24T07:32:30.569Z,2.45
2018-12-24T07:33:29.775Z,2.51
2018-12-24T07:34:32.532Z,2.58
2018-12-24T07:35:29.819Z,2.51
2018-12-24T07:36:29.626Z,2.51
2018-12-24T07:37:29.580Z,2.54
2018-12-24T07:38:29.591Z,2.45
2018-12-24T07:39:29.571Z,2.55
2018-12-24T07:40:29.471Z,2.60
2018-12-24T07:41:30.078Z,2.54
2018-12-24T07:42:29.410Z,2.52
2018-12-24T07:43:29.373Z,2.42
2018-12-24T07:44:29.387Z,2.45
2018-12-24T07:45:30.072Z,2.47
2018-12-24T07:46:29.252Z,2.42
2018-12-24T07:47:29.261Z,2.41
2018-12-24T07:48:29.187Z,2.31
2018-12-24T07:49:29.192Z,2.27
2018-12-24T07:50:30.077Z,2.33
2018-12-24T07:51:29.078Z,2.30
2018-12-24T07:52:29.088Z,2.34
2018-12-24T07:53:29.005Z,2.30
2018-12-24T07:54:29.572Z,2.33
2018-12-24T07:55:29.123Z,2.29
2018-12-24T07:56:29.576Z,2.33
2018-12-24T07:57:29.128Z,2.33
2018-12-24T07:58:29.575Z,2.34
2018-12-24T07:59:29.577Z,2.33
2018-12-24T08:00:28.792Z,2.30
2018-12-24T08:01:28.717Z,2.33
2018-12-24T08:02:29.536Z,2.29
2018-12-24T08:03:29.584Z,2.34
2018-12-24T08:04:29.581Z,2.27
2018-12-24T08:05:28.638Z,2.29
2018-12-24T08:06:28.537Z,2.30
2018-12-24T08:07:28.506Z,2.31
2018-12-24T08:08:28.633Z,2.29
2018-12-24T08:09:28.422Z,2.31
2018-12-24T08:10:28.388Z,2.29
2018-12-24T08:11:29.073Z,2.31
2018-12-24T08:12:28.632Z,2.29
2018-12-24T08:13:28.338Z,2.27
2018-12-24T08:14:32.910Z,2.31
2018-12-24T08:15:28.211Z,2.29
2018-12-24T08:16:28.174Z,2.26
2018-12-24T08:17:29.078Z,2.26
2018-12-24T08:18:28.161Z,2.18
2018-12-24T08:19:28.580Z,2.13
2018-12-24T08:20:28.598Z,2.12
2018-12-24T08:21:27.993Z,2.13
2018-12-24T08:22:27.950Z,2.05
2018-12-24T08:23:27.975Z,2.08
2018-12-24T08:24:28.583Z,1.98
2018-12-24T08:25:27.849Z,1.92
2018-12-24T08:26:27.814Z,1.89
2018-12-24T08:27:27.785Z,1.92
2018-12-24T08:28:27.787Z,1.84
2018-12-24T08:29:28.687Z,1.87
2018-12-24T08:30:27.662Z,1.89
2018-12-24T08:31:27.682Z,1.90
2018-12-24T08:32:27.598Z,1.92
2018-12-24T08:33:27.562Z,1.90
2018-12-24T08:34:27.520Z,1.89
2018-12-24T08:35:27.483Z,1.89
2018-12-24T08:36:27.510Z,1.89
2018-12-24T08:37:27.412Z,1.89
2018-12-24T08:38:28.076Z,1.87
2018-12-24T08:39:28.078Z,1.90
2018-12-24T08:40:27.305Z,1.87
2018-12-24T08:41:27.308Z,1.86
2018-12-24T08:42:27.273Z,1.90
2018-12-24T08:43:27.196Z,1.92
2018-12-24T08:44:27.208Z,1.92
2018-12-24T08:45:27.177Z,1.87
2018-12-24T08:46:27.082Z,1.92
2018-12-24T08:47:27.580Z,1.87
2018-12-24T08:48:27.013Z,1.84
2018-12-24T08:49:26.986Z,1.86
2018-12-24T08:50:26.975Z,1.98
2018-12-24T08:51:26.943Z,1.86
2018-12-24T08:52:27.725Z,1.93
2018-12-24T08:53:26.833Z,1.98
2018-12-24T08:54:26.800Z,1.97
2018-12-24T08:55:26.800Z,1.98
2018-12-24T08:56:26.775Z,1.93
2018-12-24T08:57:26.708Z,2.02
2018-12-24T08:58:26.654Z,1.92
2018-12-24T08:59:26.618Z,1.92
2018-12-24T09:00:26.580Z,2.01
2018-12-24T09:01:26.580Z,2.02
2018-12-24T09:02:26.507Z,2.05
2018-12-24T09:03:26.477Z,1.97
2018-12-24T09:04:26.440Z,2.01
2018-12-24T09:05:26.402Z,2.02
2018-12-24T09:06:26.402Z,2.04
2018-12-24T09:07:26.330Z,2.05
2018-12-24T09:08:26.335Z,2.12
2018-12-24T09:09:26.257Z,2.05
2018-12-24T09:10:26.659Z,2.09
2018-12-24T09:11:26.642Z,1.98
2018-12-24T09:12:26.146Z,2.04
2018-12-24T09:13:26.111Z,2.08
2018-12-24T09:14:26.075Z,2.11
2018-12-24T09:15:26.039Z,2.12
2018-12-24T09:16:26.054Z,2.09
2018-12-24T09:17:25.971Z,2.18
2018-12-24T09:18:26.585Z,2.09
2018-12-24T09:19:25.895Z,2.12
2018-12-24T09:20:26.535Z,2.09
2018-12-24T09:21:25.870Z,2.12
2018-12-24T09:22:25.794Z,2.08
2018-12-24T09:23:25.756Z,2.12
2018-12-24T09:24:26.579Z,2.13
2018-12-24T09:25:25.815Z,2.12
2018-12-24T09:26:25.697Z,2.18
2018-12-24T09:27:25.645Z,2.18
2018-12-24T09:28:25.591Z,2.18
2018-12-24T09:29:25.558Z,2.22
2018-12-24T09:30:25.528Z,2.09
2018-12-24T09:31:25.563Z,2.16
2018-12-24T09:32:25.443Z,2.24
2018-12-24T09:33:25.395Z,2.29
2018-12-24T09:34:25.485Z,2.26
2018-12-24T09:35:25.367Z,2.29
2018-12-24T09:36:25.342Z,2.24
2018-12-24T09:37:26.987Z,2.23
2018-12-24T09:38:26.088Z,2.24
2018-12-24T09:39:25.213Z,2.20
2018-12-24T09:40:25.177Z,2.24
2018-12-24T09:41:25.188Z,2.23
2018-12-24T09:42:25.102Z,2.27
2018-12-24T09:43:25.081Z,2.27
2018-12-24T09:44:25.108Z,2.27
2018-12-24T09:45:28.495Z,2.31
2018-12-24T09:46:25.016Z,2.29
2018-12-24T09:47:25.049Z,2.26
2018-12-24T09:49:24.883Z,2.24
2018-12-24T09:50:24.839Z,2.24
2018-12-24T09:51:25.672Z,2.23
2018-12-24T09:52:24.810Z,2.24
2018-12-24T09:53:24.731Z,2.23
2018-12-24T09:54:24.654Z,2.33
2018-12-24T09:55:24.609Z,2.26
2018-12-24T09:56:24.572Z,2.29
2018-12-24T09:57:24.589Z,2.27
2018-12-24T09:58:24.510Z,2.26
2018-12-24T09:59:24.467Z,2.34
2018-12-24T10:00:24.438Z,2.33
2018-12-24T10:01:24.395Z,2.34
2018-12-24T10:02:24.657Z,2.38
2018-12-24T10:03:24.328Z,2.29
2018-12-24T10:04:24.287Z,2.33
2018-12-24T10:05:24.251Z,2.31
2018-12-24T10:06:24.216Z,2.27
2018-12-24T10:07:24.283Z,2.36
2018-12-24T10:08:24.140Z,2.31
2018-12-24T10:09:24.107Z,2.33
2018-12-24T10:10:24.085Z,2.29
2018-12-24T10:11:24.046Z,2.26
2018-12-24T10:12:24.042Z,2.29
2018-12-24T10:13:23.966Z,2.22
2018-12-24T10:14:23.925Z,2.24
2018-12-24T10:15:23.912Z,2.29
2018-12-24T10:16:23.867Z,2.29
2018-12-24T10:17:23.873Z,2.22
2018-12-24T10:18:23.829Z,2.29
2018-12-24T10:19:23.751Z,2.20
2018-12-24T10:20:23.727Z,2.27
2018-12-24T10:21:24.583Z,2.23
2018-12-24T10:22:23.670Z,2.22
2018-12-24T10:23:23.661Z,2.38
2018-12-24T10:24:24.493Z,2.31
2018-12-24T10:25:23.578Z,2.34
2018-12-24T10:26:23.497Z,2.30
2018-12-24T10:27:24.087Z,2.30
2018-12-24T10:28:23.467Z,2.31
2018-12-24T10:29:23.454Z,2.38
2018-12-24T10:30:23.350Z,2.30
2018-12-24T10:31:23.328Z,2.30
2018-12-24T10:32:23.279Z,2.27
2018-12-24T10:33:23.360Z,2.33
2018-12-24T10:34:23.265Z,2.33
2018-12-24T10:35:24.146Z,2.33
2018-12-24T10:36:23.140Z,2.26
2018-12-24T10:37:23.120Z,2.33
2018-12-24T10:38:23.077Z,2.34
2018-12-24T10:39:23.042Z,2.29
2018-12-24T10:40:22.999Z,2.33
2018-12-24T10:41:23.036Z,2.31
2018-12-24T10:42:22.928Z,2.33
2018-12-24T10:43:22.889Z,2.30
2018-12-24T10:44:22.852Z,2.24
2018-12-24T10:45:22.828Z,2.31
2018-12-24T10:46:22.848Z,2.26
2018-12-24T10:47:22.748Z,2.33
2018-12-24T10:48:22.710Z,2.23
2018-12-24T10:49:22.684Z,2.23
2018-12-24T10:50:22.658Z,2.16
2018-12-24T10:51:24.991Z,2.13
2018-12-24T10:52:22.624Z,2.12
2018-12-24T10:53:22.578Z,2.13
2018-12-24T10:54:22.500Z,2.12
2018-12-24T10:55:22.467Z,2.18
2018-12-24T10:56:22.429Z,2.15
2018-12-24T10:57:22.444Z,2.11
2018-12-24T10:58:22.401Z,2.13
2018-12-24T10:59:22.538Z,2.18
2018-12-24T11:00:22.276Z,2.11
2018-12-24T11:01:22.287Z,2.06
2018-12-24T11:02:22.217Z,2.09
2018-12-24T11:03:22.183Z,2.15
2018-12-24T11:04:22.197Z,2.15
2018-12-24T11:05:22.103Z,2.13
2018-12-24T11:06:22.071Z,2.18
2018-12-24T11:07:22.036Z,2.20
2018-12-24T11:08:22.037Z,2.15
2018-12-24T11:09:22.009Z,2.11
2018-12-24T11:10:21.918Z,2.20
2018-12-24T11:11:22.600Z,2.09
2018-12-24T11:12:21.950Z,2.18
2018-12-24T11:13:21.860Z,2.11
2018-12-24T11:14:21.775Z,2.05
2018-12-24T11:15:25.236Z,2.02
2018-12-24T11:16:22.587Z,2.05
2018-12-24T11:17:21.668Z,2.05
2018-12-24T11:18:21.677Z,2.09
2018-12-24T11:19:21.597Z,2.09
2018-12-24T11:20:21.607Z,1.97
2018-12-24T11:21:21.523Z,2.02
2018-12-24T11:22:21.485Z,2.06
2018-12-24T11:23:21.455Z,2.06
2018-12-24T11:24:21.458Z,2.05
2018-12-24T11:25:21.419Z,2.01
2018-12-24T11:26:21.341Z,2.06
2018-12-24T11:27:21.312Z,2.09
2018-12-24T11:28:21.274Z,2.08
2018-12-24T11:29:21.237Z,2.11
2018-12-24T11:30:21.251Z,2.11
2018-12-24T11:31:21.168Z,2.11
2018-12-24T11:32:21.125Z,2.12
2018-12-24T11:33:21.315Z,2.18
2018-12-24T11:34:21.074Z,2.12
2018-12-24T11:35:21.015Z,2.12
2018-12-24T11:36:21.020Z,2.09
2018-12-24T11:37:20.941Z,2.15
2018-12-24T11:38:20.914Z,2.09
2018-12-24T11:39:20.871Z,2.15
2018-12-24T11:40:20.839Z,2.13
2018-12-24T11:41:20.854Z,2.13
2018-12-24T11:42:20.770Z,2.13
2018-12-24T11:43:20.737Z,2.12
2018-12-24T11:44:20.697Z,2.20
2018-12-24T11:45:20.656Z,2.23
2018-12-24T11:46:20.668Z,2.23
2018-12-24T11:47:20.705Z,2.24
2018-12-24T11:48:20.584Z,2.26
2018-12-24T11:49:20.519Z,2.24
2018-12-24T11:50:20.526Z,2.24
2018-12-24T11:51:20.444Z,2.26
2018-12-24T11:52:20.444Z,2.22
2018-12-24T11:53:20.366Z,2.27
2018-12-24T11:54:20.387Z,2.31
2018-12-24T11:55:20.321Z,2.30
2018-12-24T11:56:20.260Z,2.40
2018-12-24T11:57:20.271Z,2.29
2018-12-24T11:58:20.185Z,2.33
2018-12-24T11:59:20.153Z,2.41
2018-12-24T12:00:21.090Z,2.36
2018-12-24T12:01:20.120Z,2.49
2018-12-24T12:02:20.327Z,2.58
2018-12-24T12:03:20.028Z,2.62
2018-12-24T12:04:19.979Z,2.58
2018-12-24T12:05:19.937Z,2.66
2018-12-24T12:06:20.160Z,2.70
2018-12-24T12:07:19.865Z,2.59
2018-12-24T12:08:19.884Z,2.62
2018-12-24T12:09:19.805Z,2.63
2018-12-24T12:10:19.760Z,2.62
2018-12-24T12:11:19.778Z,2.66
2018-12-24T12:12:19.732Z,2.63
2018-12-24T12:13:19.653Z,2.65
2018-12-24T12:14:19.620Z,2.58
2018-12-24T12:15:19.582Z,2.65
2018-12-24T12:16:19.619Z,2.58
2018-12-24T12:17:19.516Z,2.62
2018-12-24T12:18:19.481Z,2.66
2018-12-24T12:19:19.441Z,2.58
2018-12-24T12:20:19.411Z,2.67
2018-12-24T12:21:19.411Z,2.60
2018-12-24T12:22:21.471Z,2.69
2018-12-24T12:23:20.092Z,2.69
2018-12-24T12:24:19.324Z,2.63
2018-12-24T12:25:19.230Z,2.58
2018-12-24T12:26:19.199Z,2.70
2018-12-24T12:27:19.223Z,2.63
2018-12-24T12:28:20.109Z,2.69
2018-12-24T12:29:19.141Z,2.62
2018-12-24T12:30:19.712Z,2.73
2018-12-24T12:31:19.590Z,2.67
2018-12-24T12:32:19.032Z,2.77
2018-12-24T12:33:19.006Z,2.63
2018-12-24T12:34:18.915Z,2.72
2018-12-24T12:35:18.939Z,2.78
2018-12-24T12:36:18.839Z,2.77
2018-12-24T12:37:20.998Z,2.76
2018-12-24T12:38:19.145Z,2.72
2018-12-24T12:39:18.735Z,2.60
2018-12-24T12:40:18.698Z,2.67
2018-12-24T12:41:18.730Z,2.73
2018-12-24T12:42:18.636Z,2.72
2018-12-24T12:43:18.592Z,2.67
2018-12-24T12:44:18.583Z,2.80
2018-12-24T12:45:18.603Z,2.80
2018-12-24T12:46:18.528Z,2.76
2018-12-24T12:47:18.450Z,2.78
2018-12-24T12:48:18.419Z,2.72
2018-12-24T12:49:18.379Z,2.77
2018-12-24T12:50:18.648Z,2.76
2018-12-24T12:51:18.315Z,2.81
2018-12-24T12:52:18.320Z,2.88
2018-12-24T12:53:18.306Z,2.83
2018-12-24T12:54:18.206Z,2.81
2018-12-24T12:55:18.172Z,2.78
2018-12-24T12:56:18.178Z,2.83
2018-12-24T12:57:18.165Z,2.77
2018-12-24T12:58:18.071Z,2.83
2018-12-24T12:59:21.002Z,2.78
2018-12-24T13:00:17.995Z,2.78
2018-12-24T13:01:17.961Z,2.81
2018-12-24T13:02:19.024Z,2.78
2018-12-24T13:03:18.021Z,2.73
2018-12-24T13:04:17.852Z,2.67
2018-12-24T13:05:17.828Z,2.70
2018-12-24T13:06:17.789Z,2.76
2018-12-24T13:07:18.501Z,2.67
2018-12-24T13:08:17.764Z,2.78
2018-12-24T13:09:20.605Z,2.83
2018-12-24T13:10:20.639Z,2.72
2018-12-24T13:11:18.669Z,2.81
2018-12-24T13:12:17.580Z,2.81
2018-12-24T13:13:17.591Z,2.83
2018-12-24T13:14:17.512Z,2.87
2018-12-24T13:15:17.526Z,2.80
2018-12-24T13:16:17.438Z,2.81
2018-12-24T13:17:17.453Z,2.88
2018-12-24T13:18:17.413Z,2.88
2018-12-24T13:19:17.324Z,2.85